Time;durP1;ratioP1;P1;durP2;ratioP2;P2;SDS_P1;SDS_P2;PMS_P1;PMS_P2;Temp;Humidity;BMP_temperature;BMP_pressure;BME280_temperature;BME280_humidity;BME280_pressure;Samples;Min_cycle;Max_cycle;Signal;HPM_P1;HPM_P2
2023/03/13 00:01:14;;;;;;;;;;;;;;;;;;5054803;28;19947;-25
2023/03/13 00:03:40;;;;;;;;;;;;;;;;;;5054525;28;19916;-26
2023/03/13 00:06:06;;;;;;;;;;;;;;;;;;5054433;28;19921;-24
2023/03/13 00:08:32;;;;;;;;;;;;;;;;;;5054504;28;20245;-23
2023/03/13 00:10:58;;;;;;;;;;;;;;;;;;5054467;28;19909;-24
2023/03/13 00:13:24;;;;;;;;;;;;;;;;;;5054454;28;19958;-29
2023/03/13 00:15:50;;;;;;;;;;;;;;;;;;5054754;28;19916;-24
2023/03/13 00:18:16;;;;;;;;;;;;;;;;;;5054499;28;19908;-34
2023/03/13 00:20:42;;;;;;;;;;;;;;;;;;5054638;28;19924;-28
2023/03/13 00:23:08;;;;;;;;;;;;;;;;;;5054351;28;19944;-23
2023/03/13 00:25:34;;;;;;;;;;;;;;;;;;5053420;28;19909;-26
2023/03/13 00:28:00;;;;;;;;;;;;;;;;;;5054329;28;19913;-25
2023/03/13 00:30:26;;;;;;;;;;;;;;;;;;5054571;28;19919;-26
2023/03/13 00:32:51;;;;;;;;;;;;;;;;;;5054280;28;20351;-27
2023/03/13 00:35:17;;;;;;;;;;;;;;;;;;5054307;28;19966;-23
2023/03/13 00:37:43;;;;;;;;;;;;;;;;;;5054244;28;19909;-23
2023/03/13 00:40:09;;;;;;;;;;;;;;;;;;5054296;28;19923;-25
2023/03/13 00:42:35;;;;;;;;;;;;;;;;;;5054103;28;20277;-26
2023/03/13 00:45:01;;;;;;;;;;;;;;;;;;5054444;28;20030;-31
2023/03/13 00:47:27;;;;;;;;;;;;;;;;;;5054245;28;19921;-29
2023/03/13 00:49:53;;;;;;;;;;;;;;;;;;5054211;28;19909;-22
2023/03/13 00:52:19;;;;;;;;;;;;;;;;;;5054109;28;20043;-32
2023/03/13 00:54:45;;;;;;;;;;;;;;;;;;5056837;28;19909;-26
2023/03/13 00:57:11;;;;;;;;;;;;;;;;;;5057967;28;19909;-25
2023/03/13 00:59:37;;;;;;;;;;;;;;;;;;5057911;28;19909;-24
2023/03/13 01:02:03;;;;;;;;;;;;;;;;;;5057707;28;19920;-26
2023/03/13 01:04:29;;;;;;;;;;;;;;;;;;5056389;28;20332;-27
2023/03/13 01:06:55;;;;;;;;;;;;;;;;;;5058087;28;19916;-24
2023/03/13 01:09:21;;;;;;;;;;;;;;;;;;5057738;28;19912;-26
2023/03/13 01:11:47;;;;;;;;;;;;;;;;;;5057990;28;19909;-27
2023/03/13 01:14:13;;;;;;;;;;;;;;;;;;5057593;28;19905;-30
2023/03/13 01:16:39;;;;;;;;;;;;;;;;;;5057866;28;20379;-28
2023/03/13 01:19:05;;;;;;;;;;;;;;;;;;5057825;28;19948;-26
2023/03/13 01:21:31;;;;;;;;;;;;;;;;;;5057679;28;19912;-26
2023/03/13 01:23:57;;;;;;;;;;;;;;;;;;5057686;28;20315;-27
2023/03/13 01:26:23;;;;;;;;;;;;;;;;;;5057408;28;20275;-27
2023/03/13 01:28:49;;;;;;;;;;;;;;;;;;5057423;28;20058;-24
2023/03/13 01:31:15;;;;;;;;;;;;;;;;;;5057387;28;19924;-25
2023/03/13 01:33:41;;;;;;;;;;;;;;;;;;5057283;28;19958;-26
2023/03/13 01:36:07;;;;;;;;;;;;;;;;;;5057254;28;19991;-25
2023/03/13 01:38:33;;;;;;;;;;;;;;;;;;5057230;28;19909;-26
2023/03/13 01:40:59;;;;;;;;;;;;;;;;;;5057023;28;19920;-27
2023/03/13 01:43:25;;;;;;;;;;;;;;;;;;5057023;28;19909;-25
2023/03/13 01:45:51;;;;;;;;;;;;;;;;;;5056992;28;19909;-25
2023/03/13 01:48:17;;;;;;;;;;;;;;;;;;5056970;28;20011;-31
2023/03/13 01:50:43;;;;;;;;;;;;;;;;;;5056933;28;19910;-28
2023/03/13 01:53:09;;;;;;;;;;;;;;;;;;5057113;28;19913;-31
2023/03/13 01:55:35;;;;;;;;;;;;;;;;;;5056886;28;19910;-29
2023/03/13 01:58:01;;;;;;;;;;;;;;;;;;5057372;28;20347;-25
2023/03/13 02:00:27;;;;;;;;;;;;;;;;;;5056732;28;19908;-24
2023/03/13 02:02:53;;;;;;;;;;;;;;;;;;5056971;28;19991;-23
2023/03/13 02:05:18;;;;;;;;;;;;;;;;;;5056363;28;19921;-26
2023/03/13 02:07:44;;;;;;;;;;;;;;;;;;5056956;28;20459;-26
2023/03/13 02:10:10;;;;;;;;;;;;;;;;;;5056594;28;19908;-28
2023/03/13 02:12:36;;;;;;;;;;;;;;;;;;5056659;28;20003;-29
2023/03/13 02:15:02;;;;;;;;;;;;;;;;;;5056552;28;19912;-27
2023/03/13 02:17:28;;;;;;;;;;;;;;;;;;5056698;28;19951;-27
2023/03/13 02:19:54;;;;;;;;;;;;;;;;;;5055427;28;19912;-26
2023/03/13 02:22:20;;;;;;;;;;;;;;;;;;5056489;28;19962;-26
2023/03/13 02:24:46;;;;;;;;;;;;;;;;;;5056643;28;20355;-25
2023/03/13 02:27:12;;;;;;;;;;;;;;;;;;5056301;28;19913;-25
2023/03/13 02:29:38;;;;;;;;;;;;;;;;;;5056254;28;19909;-31
2023/03/13 02:32:04;;;;;;;;;;;;;;;;;;5056161;28;19909;-28
2023/03/13 02:34:30;;;;;;;;;;;;;;;;;;5056122;28;19909;-28
2023/03/13 02:36:56;;;;;;;;;;;;;;;;;;5056501;28;19913;-24
2023/03/13 02:39:22;;;;;;;;;;;;;;;;;;5056063;28;20372;-27
2023/03/13 02:41:48;;;;;;;;;;;;;;;;;;5055976;28;19912;-25
2023/03/13 02:44:14;;;;;;;;;;;;;;;;;;5056140;28;19909;-25
2023/03/13 02:46:39;;;;;;;;;;;;;;;;;;5056230;28;19935;-27
2023/03/13 02:49:05;;;;;;;;;;;;;;;;;;5055917;28;19913;-26
2023/03/13 02:51:31;;;;;;;;;;;;;;;;;;5056089;28;19908;-23
2023/03/13 02:53:57;;;;;;;;;;;;;;;;;;5056046;28;19919;-25
2023/03/13 02:56:23;;;;;;;;;;;;;;;;;;5055973;28;20299;-25
2023/03/13 02:58:49;;;;;;;;;;;;;;;;;;5055738;28;19923;-24
2023/03/13 03:01:15;;;;;;;;;;;;;;;;;;5055571;28;19956;-23
2023/03/13 03:03:41;;;;;;;;;;;;;;;;;;5055558;28;19909;-26
2023/03/13 03:06:07;;;;;;;;;;;;;;;;;;5055333;28;19921;-26
2023/03/13 03:08:33;;;;;;;;;;;;;;;;;;5055730;28;19920;-22
2023/03/13 03:10:59;;;;;;;;;;;;;;;;;;5055479;28;19909;-27
2023/03/13 03:13:25;;;;;;;;;;;;;;;;;;5055409;28;20251;-31
2023/03/13 03:15:51;;;;;;;;;;;;;;;;;;5054974;28;19921;-25
2023/03/13 03:18:17;;;;;;;;;;;;;;;;;;5055399;28;19962;-29
2023/03/13 03:20:43;;;;;;;;;;;;;;;;;;5055227;28;20370;-26
2023/03/13 03:23:09;;;;;;;;;;;;;;;;;;5055487;28;20292;-26
2023/03/13 03:25:35;;;;;;;;;;;;;;;;;;5055177;28;20248;-27
2023/03/13 03:28:00;;;;;;;;;;;;;;;;;;5055425;28;19987;-27
2023/03/13 03:30:26;;;;;;;;;;;;;;;;;;5055033;28;19996;-26
2023/03/13 03:32:52;;;;;;;;;;;;;;;;;;5054982;28;19913;-25
2023/03/13 03:35:18;;;;;;;;;;;;;;;;;;5054974;28;19912;-29
2023/03/13 03:37:44;;;;;;;;;;;;;;;;;;5055044;28;19917;-31
2023/03/13 03:40:10;;;;;;;;;;;;;;;;;;5054917;28;19955;-25
2023/03/13 03:42:36;;;;;;;;;;;;;;;;;;5053799;28;19921;-27
2023/03/13 03:45:02;;;;;;;;;;;;;;;;;;5054862;28;19939;-27
2023/03/13 03:47:28;;;;;;;;;;;;;;;;;;5055082;28;19909;-29
2023/03/13 03:49:54;;;;;;;;;;;;;;;;;;5054827;28;19908;-26
2023/03/13 03:52:20;;;;;;;;;;;;;;;;;;5054710;28;19909;-27
2023/03/13 03:54:46;;;;;;;;;;;;;;;;;;5055021;28;19992;-23
2023/03/13 03:57:12;;;;;;;;;;;;;;;;;;5054751;28;19913;-23
2023/03/13 03:59:38;;;;;;;;;;;;;;;;;;5054665;28;20394;-30
2023/03/13 04:02:04;;;;;;;;;;;;;;;;;;5054530;28;20300;-26
2023/03/13 04:04:30;;;;;;;;;;;;;;;;;;5054596;28;19909;-25
2023/03/13 04:06:56;;;;;;;;;;;;;;;;;;5054871;28;19908;-27
2023/03/13 04:09:22;;;;;;;;;;;;;;;;;;5054561;28;19909;-25
2023/03/13 04:11:48;;;;;;;;;;;;;;;;;;5054811;28;19962;-26
2023/03/13 04:14:14;;;;;;;;;;;;;;;;;;5054441;28;19962;-25
2023/03/13 04:16:39;;;;;;;;;;;;;;;;;;5054755;28;19947;-26
2023/03/13 04:19:06;;;;;;;;;;;;;;;;;;5054634;28;19988;-27
2023/03/13 04:21:32;;;;;;;;;;;;;;;;;;5054384;28;19913;-29
2023/03/13 04:23:58;;;;;;;;;;;;;;;;;;5054631;28;19915;-30
2023/03/13 04:26:24;;;;;;;;;;;;;;;;;;5054419;28;19963;-33
2023/03/13 04:28:50;;;;;;;;;;;;;;;;;;5056074;28;19908;-33
2023/03/13 04:31:16;;;;;;;;;;;;;;;;;;5058516;28;19915;-26
2023/03/13 04:33:41;;;;;;;;;;;;;;;;;;5058493;28;20382;-28
2023/03/13 04:36:07;;;;;;;;;;;;;;;;;;5058362;28;20249;-25
2023/03/13 04:38:33;;;;;;;;;;;;;;;;;;5058609;28;20407;-23
2023/03/13 04:40:59;;;;;;;;;;;;;;;;;;5057146;28;19917;-26
2023/03/13 04:43:25;;;;;;;;;;;;;;;;;;5058381;28;19977;-27
2023/03/13 04:45:53;;;;;;;;;;;;;;;;;;5058127;28;19959;-29
2023/03/13 04:48:19;;;;;;;;;;;;;;;;;;5058981;28;19909;-28
2023/03/13 04:50:45;;;;;;;;;;;;;;;;;;5057997;28;20332;-23
2023/03/13 04:53:11;;;;;;;;;;;;;;;;;;5058034;28;20374;-28
2023/03/13 04:55:37;;;;;;;;;;;;;;;;;;5057855;28;20286;-28
2023/03/13 04:58:03;;;;;;;;;;;;;;;;;;5058122;28;20276;-25
2023/03/13 05:03:18;;;;;;;;;;;;;;;;;;5369919;23;19925;-24
2023/03/13 05:05:44;;;;;;;;;;;;;;;;;;4998287;28;19933;-24
2023/03/13 05:08:10;;;;;;;;;;;;;;;;;;4998387;28;19985;-23
2023/03/13 05:10:36;;;;;;;;;;;;;;;;;;4998370;28;19953;-25
2023/03/13 05:13:02;;;;;;;;;;;;;;;;;;4998054;28;20308;-24
2023/03/13 05:15:28;;;;;;;;;;;;;;;;;;4980812;28;20333;-24
2023/03/13 05:17:54;;;;;;;;;;;;;;;;;;4998034;28;19913;-24
2023/03/13 05:20:20;;;;;;;;;;;;;;;;;;4998244;28;19909;-24
2023/03/13 05:22:46;;;;;;;;;;;;;;;;;;4980432;28;20316;-24
2023/03/13 05:25:12;;;;;;;;;;;;;;;;;;4980802;28;20009;-25
2023/03/13 05:27:38;;;;;;;;;;;;;;;;;;4997873;28;19910;-24
2023/03/13 05:30:04;;;;;;;;;;;;;;;;;;4997833;28;20372;-24
2023/03/13 05:32:30;;;;;;;;;;;;;;;;;;4997993;28;19941;-25
2023/03/13 05:34:55;;;;;;;;;;;;;;;;;;4997971;28;20017;-24
2023/03/13 05:37:21;;;;;;;;;;;;;;;;;;4997555;28;19921;-24
2023/03/13 05:39:47;;;;;;;;;;;;;;;;;;4996986;28;19949;-25
2023/03/13 05:42:13;;;;;;;;;;;;;;;;;;4997408;28;20265;-25
2023/03/13 05:44:39;;;;;;;;;;;;;;;;;;4997526;28;19910;-24
2023/03/13 05:47:05;;;;;;;;;;;;;;;;;;4997489;28;19936;-25
2023/03/13 05:49:31;;;;;;;;;;;;;;;;;;4980327;28;19968;-25
2023/03/13 05:51:57;;;;;;;;;;;;;;;;;;4997404;28;19978;-24
2023/03/13 05:54:23;;;;;;;;;;;;;;;;;;4997224;28;20359;-25
2023/03/13 05:56:50;;;;;;;;;;;;;;;;;;4997054;28;20256;-24
2023/03/13 05:59:16;;;;;;;;;;;;;;;;;;4997304;28;20107;-24
2023/03/13 06:01:42;;;;;;;;;;;;;;;;;;4996766;28;20038;-24
2023/03/13 06:04:08;;;;;;;;;;;;;;;;;;4996998;28;19921;-25
2023/03/13 06:06:34;;;;;;;;;;;;;;;;;;4996914;28;19988;-25
2023/03/13 06:09:00;;;;;;;;;;;;;;;;;;4997098;28;19909;-24
2023/03/13 06:11:26;;;;;;;;;;;;;;;;;;4996811;28;19913;-24
2023/03/13 06:13:52;;;;;;;;;;;;;;;;;;4996944;28;20340;-24
2023/03/13 06:16:18;;;;;;;;;;;;;;;;;;4997179;28;20210;-25
2023/03/13 06:18:44;;;;;;;;;;;;;;;;;;4996794;28;19910;-24
2023/03/13 06:21:10;;;;;;;;;;;;;;;;;;4979692;28;20017;-24
2023/03/13 06:23:36;;;;;;;;;;;;;;;;;;4996765;28;19918;-24
2023/03/13 06:26:02;;;;;;;;;;;;;;;;;;4979826;28;19921;-24
2023/03/13 06:28:28;;;;;;;;;;;;;;;;;;4997890;28;20290;-23
2023/03/13 06:30:54;;;;;;;;;;;;;;;;;;4996882;28;19917;-25
2023/03/13 06:33:20;;;;;;;;;;;;;;;;;;4996564;28;19910;-25
2023/03/13 06:35:46;;;;;;;;;;;;;;;;;;4996497;28;19909;-24
2023/03/13 06:38:12;;;;;;;;;;;;;;;;;;4996327;28;19929;-24
2023/03/13 06:40:38;;;;;;;;;;;;;;;;;;4979106;28;19910;-25
2023/03/13 06:43:04;;;;;;;;;;;;;;;;;;4996243;28;20338;-25
2023/03/13 06:45:30;;;;;;;;;;;;;;;;;;4996446;28;19964;-25
2023/03/13 06:47:56;;;;;;;;;;;;;;;;;;4996449;28;19920;-24
2023/03/13 06:50:22;;;;;;;;;;;;;;;;;;4996143;28;20356;-24
2023/03/13 06:52:48;;;;;;;;;;;;;;;;;;4995618;28;19909;-24
2023/03/13 06:55:14;;;;;;;;;;;;;;;;;;4996020;28;20038;-24
2023/03/13 06:57:40;;;;;;;;;;;;;;;;;;4995865;28;19921;-25
2023/03/13 07:00:07;;;;;;;;;;;;;;;;;;4996155;28;19910;-25
2023/03/13 07:02:33;;;;;;;;;;;;;;;;;;4995538;28;19921;-26
2023/03/13 07:04:59;;;;;;;;;;;;;;;;;;4996138;28;20008;-25
2023/03/13 07:07:25;;;;;;;;;;;;;;;;;;4996108;28;19963;-25
2023/03/13 07:09:51;;;;;;;;;;;;;;;;;;4996019;28;19952;-26
2023/03/13 07:12:17;;;;;;;;;;;;;;;;;;4995744;28;19910;-25
2023/03/13 07:14:44;;;;;;;;;;;;;;;;;;4995806;28;19905;-26
2023/03/13 07:17:10;;;;;;;;;;;;;;;;;;4995218;28;19910;-26
2023/03/13 07:19:36;;;;;;;;;;;;;;;;;;4995471;28;20456;-24
2023/03/13 07:22:02;;;;;;;;;;;;;;;;;;4995199;28;19932;-26
2023/03/13 07:24:28;;;;;;;;;;;;;;;;;;4995455;28;19980;-26
2023/03/13 07:26:54;;;;;;;;;;;;;;;;;;4995076;28;19909;-26
2023/03/13 07:29:20;;;;;;;;;;;;;;;;;;4994985;28;20013;-26
2023/03/13 07:31:46;;;;;;;;;;;;;;;;;;4995041;28;19910;-26
2023/03/13 07:34:12;;;;;;;;;;;;;;;;;;4995069;28;19910;-25
2023/03/13 07:36:40;;;;;;;;;;;;;;;;;;4995138;28;20143;-24
2023/03/13 07:39:06;;;;;;;;;;;;;;;;;;4995049;28;19910;-24
2023/03/13 07:41:32;;;;;;;;;;;;;;;;;;4994842;28;19979;-24
2023/03/13 07:43:58;;;;;;;;;;;;;;;;;;4994836;28;19909;-24
2023/03/13 07:46:24;;;;;;;;;;;;;;;;;;4995227;28;19936;-25
2023/03/13 07:48:51;;;;;;;;;;;;;;;;;;4978092;28;20005;-24
2023/03/13 07:51:17;;;;;;;;;;;;;;;;;;4995134;28;19910;-24
2023/03/13 07:53:43;;;;;;;;;;;;;;;;;;4995026;28;19918;-24
2023/03/13 07:56:09;;;;;;;;;;;;;;;;;;4995040;28;20423;-24
2023/03/13 07:58:35;;;;;;;;;;;;;;;;;;4995202;28;19940;-24
2023/03/13 08:01:01;;;;;;;;;;;;;;;;;;4995038;28;19920;-24
2023/03/13 08:03:27;;;;;;;;;;;;;;;;;;4994585;28;20297;-24
2023/03/13 08:05:53;;;;;;;;;;;;;;;;;;4994911;28;19992;-24
2023/03/13 08:08:19;;;;;;;;;;;;;;;;;;4994928;28;19910;-24
2023/03/13 08:10:45;;;;;;;;;;;;;;;;;;4994894;28;19932;-24
2023/03/13 08:13:11;;;;;;;;;;;;;;;;;;4994833;28;19909;-24
2023/03/13 08:15:37;;;;;;;;;;;;;;;;;;4995030;28;19917;-24
2023/03/13 08:18:03;;;;;;;;;;;;;;;;;;4995092;28;19918;-24
2023/03/13 08:20:29;;;;;;;;;;;;;;;;;;4994971;28;19914;-24
2023/03/13 08:22:55;;;;;;;;;;;;;;;;;;4994725;28;19914;-24
2023/03/13 08:25:21;;;;;;;;;;;;;;;;;;4994994;28;19910;-23
2023/03/13 08:27:47;;;;;;;;;;;;;;;;;;4994753;28;20237;-23
2023/03/13 08:30:13;;;;;;;;;;;;;;;;;;4995083;28;19921;-23
2023/03/13 08:32:39;;;;;;;;;;;;;;;;;;4994622;28;19921;-25
2023/03/13 08:35:05;;;;;;;;;;;;;;;;;;4994644;28;19986;-24
2023/03/13 08:37:31;;;;;;;;;;;;;;;;;;4994679;28;19910;-24
2023/03/13 08:39:57;;;;;;;;;;;;;;;;;;4977372;28;19910;-24
2023/03/13 08:42:23;;;;;;;;;;;;;;;;;;4994554;28;20067;-24
2023/03/13 08:44:49;;;;;;;;;;;;;;;;;;4994690;28;20028;-23
2023/03/13 08:47:17;;;;;;;;;;;;;;;;;;4994442;28;19975;-24
2023/03/13 08:49:43;;;;;;;;;;;;;;;;;;4994119;28;19929;-23
2023/03/13 08:52:08;;;;;;;;;;;;;;;;;;4994450;28;19909;-24
2023/03/13 08:54:34;;;;;;;;;;;;;;;;;;4994596;28;19969;-24
2023/03/13 08:57:00;;;;;;;;;;;;;;;;;;4994574;28;19949;-23
2023/03/13 08:59:26;;;;;;;;;;;;;;;;;;4994449;28;20330;-24
2023/03/13 09:01:52;;;;;;;;;;;;;;;;;;4994870;28;19914;-23
2023/03/13 09:04:19;;;;;;;;;;;;;;;;;;4994212;28;20075;-24
2023/03/13 09:06:45;;;;;;;;;;;;;;;;;;4994468;28;19998;-23
2023/03/13 09:09:11;;;;;;;;;;;;;;;;;;4994447;28;20312;-23
2023/03/13 09:11:37;;;;;;;;;;;;;;;;;;4977301;28;19906;-23
2023/03/13 09:14:03;;;;;;;;;;;;;;;;;;4994263;28;19968;-23
2023/03/13 09:16:29;;;;;;;;;;;;;;;;;;4997815;28;20244;-25
2023/03/13 09:18:55;;;;;;;;;;;;;;;;;;4998206;28;19910;-24
2023/03/13 09:21:21;;;;;;;;;;;;;;;;;;4998004;28;20371;-24
2023/03/13 09:23:46;;;;;;;;;;;;;;;;;;4997799;28;20372;-24
2023/03/13 09:26:12;;;;;;;;;;;;;;;;;;4998016;28;19929;-23
2023/03/13 09:28:40;;;;;;;;;;;;;;;;;;4997562;28;19910;-24
2023/03/13 09:31:07;;;;;;;;;;;;;;;;;;4997828;28;19909;-23
2023/03/13 09:33:33;;;;;;;;;;;;;;;;;;4997548;28;19910;-24
2023/03/13 09:35:59;;;;;;;;;;;;;;;;;;4980485;28;19910;-24
2023/03/13 09:38:25;;;;;;;;;;;;;;;;;;4997808;28;19921;-24
2023/03/13 09:40:51;;;;;;;;;;;;;;;;;;4997759;28;20293;-23
2023/03/13 09:43:17;;;;;;;;;;;;;;;;;;4997537;28;19910;-24
2023/03/13 09:45:42;;;;;;;;;;;;;;;;;;4997163;28;19910;-25
2023/03/13 09:48:08;;;;;;;;;;;;;;;;;;4997139;28;20321;-24
2023/03/13 09:50:34;;;;;;;;;;;;;;;;;;4997064;28;19909;-24
2023/03/13 09:53:00;;;;;;;;;;;;;;;;;;4996862;28;19909;-25
2023/03/13 09:55:26;;;;;;;;;;;;;;;;;;4997064;28;19917;-25
2023/03/13 09:57:53;;;;;;;;;;;;;;;;;;4996720;28;19910;-25
2023/03/13 10:00:19;;;;;;;;;;;;;;;;;;4996814;28;19922;-25
2023/03/13 10:02:45;;;;;;;;;;;;;;;;;;4996191;28;20009;-26
2023/03/13 10:05:11;;;;;;;;;;;;;;;;;;4996569;28;19906;-25
2023/03/13 10:07:37;;;;;;;;;;;;;;;;;;4996785;28;19941;-25
2023/03/13 10:10:03;;;;;;;;;;;;;;;;;;4996553;28;20000;-24
2023/03/13 10:12:29;;;;;;;;;;;;;;;;;;4996537;28;19941;-24
2023/03/13 10:14:55;;;;;;;;;;;;;;;;;;4996244;28;20329;-25
2023/03/13 10:17:21;;;;;;;;;;;;;;;;;;4996454;28;19916;-24
2023/03/13 10:19:47;;;;;;;;;;;;;;;;;;4996143;28;20186;-24
2023/03/13 10:22:13;;;;;;;;;;;;;;;;;;4996759;28;19913;-25
2023/03/13 10:24:39;;;;;;;;;;;;;;;;;;4996583;28;20264;-25
2023/03/13 10:27:05;;;;;;;;;;;;;;;;;;4996855;28;20003;-25
2023/03/13 10:29:31;;;;;;;;;;;;;;;;;;4996603;28;19909;-25
2023/03/13 10:31:57;;;;;;;;;;;;;;;;;;4979429;28;19936;-25
2023/03/13 10:34:23;;;;;;;;;;;;;;;;;;4996639;28;20008;-25
2023/03/13 10:36:49;;;;;;;;;;;;;;;;;;4996456;28;19953;-25
2023/03/13 10:39:15;;;;;;;;;;;;;;;;;;4996521;28;19981;-25
2023/03/13 10:41:41;;;;;;;;;;;;;;;;;;4996233;28;19981;-25
2023/03/13 10:44:08;;;;;;;;;;;;;;;;;;4979083;28;20397;-25
2023/03/13 10:46:34;;;;;;;;;;;;;;;;;;4996610;28;20257;-25
2023/03/13 10:49:00;;;;;;;;;;;;;;;;;;4996198;28;19976;-25
2023/03/13 10:51:26;;;;;;;;;;;;;;;;;;4996353;28;19969;-25
2023/03/13 10:53:52;;;;;;;;;;;;;;;;;;4996122;28;20008;-25
2023/03/13 10:56:17;;;;;;;;;;;;;;;;;;4996188;28;20000;-25
2023/03/13 10:58:43;;;;;;;;;;;;;;;;;;4996311;28;19972;-25
2023/03/13 11:01:09;;;;;;;;;;;;;;;;;;4996012;28;20245;-25
2023/03/13 11:03:35;;;;;;;;;;;;;;;;;;4995678;28;19922;-25
2023/03/13 11:06:01;;;;;;;;;;;;;;;;;;4996032;28;20252;-24
2023/03/13 11:08:27;;;;;;;;;;;;;;;;;;4995843;28;20280;-25
2023/03/13 11:10:54;;;;;;;;;;;;;;;;;;4995667;28;19910;-25
2023/03/13 11:13:20;;;;;;;;;;;;;;;;;;4995709;28;19928;-24
2023/03/13 11:15:47;;;;;;;;;;;;;;;;;;4995966;28;20329;-25
2023/03/13 11:18:13;;;;;;;;;;;;;;;;;;4995754;28;19910;-25
2023/03/13 11:20:39;;;;;;;;;;;;;;;;;;4995611;28;20013;-25
2023/03/13 11:23:05;;;;;;;;;;;;;;;;;;4995481;28;19937;-24
2023/03/13 11:25:33;;;;;;;;;;;;;;;;;;4994875;28;20270;-25
2023/03/13 11:27:59;;;;;;;;;;;;;;;;;;4995705;28;19910;-25
2023/03/13 11:30:25;;;;;;;;;;;;;;;;;;4995459;28;19914;-24
2023/03/13 11:32:51;;;;;;;;;;;;;;;;;;4995324;28;19910;-25
2023/03/13 11:35:17;;;;;;;;;;;;;;;;;;4995487;28;19989;-25
2023/03/13 11:37:43;;;;;;;;;;;;;;;;;;4994949;28;20328;-24
2023/03/13 11:40:09;;;;;;;;;;;;;;;;;;4995224;28;19906;-24
2023/03/13 11:42:35;;;;;;;;;;;;;;;;;;4995131;28;19920;-24
2023/03/13 11:45:00;;;;;;;;;;;;;;;;;;4995350;28;20364;-25
2023/03/13 11:47:26;;;;;;;;;;;;;;;;;;4995175;28;19921;-25
2023/03/13 11:49:52;;;;;;;;;;;;;;;;;;4977556;28;20016;-24
2023/03/13 11:52:18;;;;;;;;;;;;;;;;;;4994979;28;19917;-25
2023/03/13 11:54:44;;;;;;;;;;;;;;;;;;4977763;28;20365;-25
2023/03/13 11:57:11;;;;;;;;;;;;;;;;;;4994877;28;20364;-25
2023/03/13 11:59:37;;;;;;;;;;;;;;;;;;4994612;28;19909;-25
2023/03/13 12:02:03;;;;;;;;;;;;;;;;;;4994292;28;19920;-25
2023/03/13 12:04:29;;;;;;;;;;;;;;;;;;4994593;28;19913;-25
2023/03/13 12:06:55;;;;;;;;;;;;;;;;;;4995419;28;20355;-25
2023/03/13 12:09:21;;;;;;;;;;;;;;;;;;4994845;28;20264;-25
2023/03/13 12:11:47;;;;;;;;;;;;;;;;;;4994432;28;19917;-24
2023/03/13 12:14:13;;;;;;;;;;;;;;;;;;4994447;28;19913;-25
2023/03/13 12:16:39;;;;;;;;;;;;;;;;;;4977836;28;20048;-25
2023/03/13 12:19:05;;;;;;;;;;;;;;;;;;4994562;28;20020;-25
2023/03/13 12:21:31;;;;;;;;;;;;;;;;;;4994666;28;19968;-24
2023/03/13 12:23:57;;;;;;;;;;;;;;;;;;4994747;28;19910;-25
2023/03/13 12:26:23;;;;;;;;;;;;;;;;;;4994787;28;19921;-25
2023/03/13 12:28:49;;;;;;;;;;;;;;;;;;4994827;28;19909;-25
2023/03/13 12:31:15;;;;;;;;;;;;;;;;;;4994970;28;19957;-25
2023/03/13 12:33:41;;;;;;;;;;;;;;;;;;4977730;28;19910;-24
2023/03/13 12:36:07;;;;;;;;;;;;;;;;;;4995174;28;19910;-25
2023/03/13 12:38:33;;;;;;;;;;;;;;;;;;4977478;28;19976;-24
2023/03/13 12:40:59;;;;;;;;;;;;;;;;;;4994711;28;19922;-25
2023/03/13 12:43:25;;;;;;;;;;;;;;;;;;4994759;28;19916;-25
2023/03/13 12:45:51;;;;;;;;;;;;;;;;;;4994707;28;19910;-25
2023/03/13 12:48:17;;;;;;;;;;;;;;;;;;4994841;28;20372;-25
2023/03/13 12:50:43;;;;;;;;;;;;;;;;;;4997730;28;19914;-25
2023/03/13 12:53:09;;;;;;;;;;;;;;;;;;4998647;28;20004;-25
2023/03/13 12:55:35;;;;;;;;;;;;;;;;;;4998430;28;19910;-26
2023/03/13 12:58:01;;;;;;;;;;;;;;;;;;4998416;28;19910;-25
2023/03/13 13:00:27;;;;;;;;;;;;;;;;;;4981065;28;19993;-24
2023/03/13 13:02:53;;;;;;;;;;;;;;;;;;4997960;28;20309;-25
2023/03/13 13:05:19;;;;;;;;;;;;;;;;;;4998088;28;19906;-24
2023/03/13 13:07:45;;;;;;;;;;;;;;;;;;4998037;28;19972;-24
2023/03/13 13:10:11;;;;;;;;;;;;;;;;;;4998450;28;19910;-25
2023/03/13 13:12:37;;;;;;;;;;;;;;;;;;4998095;28;19945;-25
2023/03/13 13:15:03;;;;;;;;;;;;;;;;;;4998064;28;19913;-25
2023/03/13 13:17:29;;;;;;;;;;;;;;;;;;4997779;28;19910;-24
2023/03/13 13:19:55;;;;;;;;;;;;;;;;;;4997837;28;19971;-25
2023/03/13 13:22:21;;;;;;;;;;;;;;;;;;4997677;28;20261;-24
2023/03/13 13:24:47;;;;;;;;;;;;;;;;;;4980603;28;19920;-25
2023/03/13 13:27:13;;;;;;;;;;;;;;;;;;4997784;28;19913;-25
2023/03/13 13:29:39;;;;;;;;;;;;;;;;;;4997890;28;20305;-25
2023/03/13 13:32:07;;;;;;;;;;;;;;;;;;4997546;28;19932;-25
2023/03/13 13:34:33;;;;;;;;;;;;;;;;;;4997831;28;19909;-25
2023/03/13 13:36:59;;;;;;;;;;;;;;;;;;4997687;28;19909;-25
2023/03/13 13:39:26;;;;;;;;;;;;;;;;;;4997998;28;19961;-26
2023/03/13 13:41:52;;;;;;;;;;;;;;;;;;4997446;28;19914;-25
2023/03/13 13:44:18;;;;;;;;;;;;;;;;;;4997460;28;20353;-24
2023/03/13 13:46:44;;;;;;;;;;;;;;;;;;4997403;28;19909;-24
2023/03/13 13:49:10;;;;;;;;;;;;;;;;;;4997332;28;19910;-24
2023/03/13 13:51:36;;;;;;;;;;;;;;;;;;4997346;28;19906;-24
2023/03/13 13:54:02;;;;;;;;;;;;;;;;;;4997374;28;19910;-24
2023/03/13 13:56:28;;;;;;;;;;;;;;;;;;4997447;28;19938;-24
2023/03/13 13:58:54;;;;;;;;;;;;;;;;;;4979733;28;19949;-24
2023/03/13 14:01:20;;;;;;;;;;;;;;;;;;4996721;28;20013;-24
2023/03/13 14:03:46;;;;;;;;;;;;;;;;;;4976264;28;20207;-24
2023/03/13 14:06:12;;;;;;;;;;;;;;;;;;4977844;28;20010;-24
2023/03/13 14:08:38;;;;;;;;;;;;;;;;;;4976360;28;19910;-24
2023/03/13 14:11:04;;;;;;;;;;;;;;;;;;4976526;28;19921;-24
2023/03/13 14:13:30;;;;;;;;;;;;;;;;;;4977537;28;20340;-24
2023/03/13 14:15:56;;;;;;;;;;;;;;;;;;4977723;28;19917;-24
2023/03/13 14:18:22;;;;;;;;;;;;;;;;;;4977429;28;20004;-24
2023/03/13 14:20:48;;;;;;;;;;;;;;;;;;4977388;28;19997;-24
2023/03/13 14:23:14;;;;;;;;;;;;;;;;;;4977468;28;20404;-24
2023/03/13 14:25:41;;;;;;;;;;;;;;;;;;4977391;28;19921;-24
2023/03/13 14:28:07;;;;;;;;;;;;;;;;;;4977268;28;19965;-24
2023/03/13 14:30:33;;;;;;;;;;;;;;;;;;4976159;28;19914;-24
2023/03/13 14:32:59;;;;;;;;;;;;;;;;;;4977031;28;20013;-24
2023/03/13 14:35:25;;;;;;;;;;;;;;;;;;4977286;28;19910;-24
2023/03/13 14:37:52;;;;;;;;;;;;;;;;;;4976107;28;19910;-24
2023/03/13 14:40:18;;;;;;;;;;;;;;;;;;4977243;28;20308;-24
2023/03/13 14:42:43;;;;;;;;;;;;;;;;;;4976917;28;19921;-24
2023/03/13 14:45:09;;;;;;;;;;;;;;;;;;4976967;28;20278;-24
2023/03/13 14:47:35;;;;;;;;;;;;;;;;;;4975837;28;19946;-24
2023/03/13 14:50:03;;;;;;;;;;;;;;;;;;4976937;28;19910;-24
2023/03/13 14:52:29;;;;;;;;;;;;;;;;;;4977124;28;19910;-24
2023/03/13 14:54:55;;;;;;;;;;;;;;;;;;4976642;28;19921;-24
2023/03/13 14:57:21;;;;;;;;;;;;;;;;;;4975505;28;19910;-24
2023/03/13 14:59:48;;;;;;;;;;;;;;;;;;4976686;28;19945;-24
2023/03/13 15:02:14;;;;;;;;;;;;;;;;;;4976252;28;19918;-24
2023/03/13 15:04:40;;;;;;;;;;;;;;;;;;4995320;28;19948;-24
2023/03/13 15:07:05;;;;;;;;;;;;;;;;;;4996797;28;19925;-24
2023/03/13 15:09:31;;;;;;;;;;;;;;;;;;4995805;28;20321;-24
2023/03/13 15:11:57;;;;;;;;;;;;;;;;;;4995127;28;19918;-24
2023/03/13 15:14:23;;;;;;;;;;;;;;;;;;4978682;28;19957;-24
2023/03/13 15:16:49;;;;;;;;;;;;;;;;;;4996220;28;20057;-24
2023/03/13 15:19:15;;;;;;;;;;;;;;;;;;4996140;28;20005;-24
2023/03/13 15:21:41;;;;;;;;;;;;;;;;;;4995401;28;19941;-24
2023/03/13 15:24:07;;;;;;;;;;;;;;;;;;4995818;28;19925;-24
2023/03/13 15:26:33;;;;;;;;;;;;;;;;;;4995602;28;20009;-25
2023/03/13 15:28:59;;;;;;;;;;;;;;;;;;4995644;28;19917;-25
2023/03/13 15:31:25;;;;;;;;;;;;;;;;;;4995980;28;19906;-25
2023/03/13 15:33:51;;;;;;;;;;;;;;;;;;4995489;28;19993;-25
2023/03/13 15:36:17;;;;;;;;;;;;;;;;;;4995431;28;20203;-25
2023/03/13 15:38:43;;;;;;;;;;;;;;;;;;4995448;28;20001;-25
2023/03/13 15:41:09;;;;;;;;;;;;;;;;;;4995303;28;20067;-25
2023/03/13 15:43:35;;;;;;;;;;;;;;;;;;4978268;28;20037;-25
2023/03/13 15:46:02;;;;;;;;;;;;;;;;;;4995045;28;19917;-25
2023/03/13 15:48:28;;;;;;;;;;;;;;;;;;4995105;28;19920;-25
2023/03/13 15:50:54;;;;;;;;;;;;;;;;;;4995409;28;19964;-25
2023/03/13 15:53:20;;;;;;;;;;;;;;;;;;4995340;28;20340;-25
2023/03/13 15:55:46;;;;;;;;;;;;;;;;;;4977951;28;19910;-25
2023/03/13 15:58:12;;;;;;;;;;;;;;;;;;4995353;28;19921;-25
2023/03/13 16:00:38;;;;;;;;;;;;;;;;;;4994876;28;19929;-25
2023/03/13 16:03:04;;;;;;;;;;;;;;;;;;4977558;28;19922;-25
2023/03/13 16:05:30;;;;;;;;;;;;;;;;;;4977897;28;19906;-25
2023/03/13 16:07:56;;;;;;;;;;;;;;;;;;4995227;28;19965;-25
2023/03/13 16:10:22;;;;;;;;;;;;;;;;;;4977798;28;19917;-26
2023/03/13 16:12:48;;;;;;;;;;;;;;;;;;4977485;28;19921;-26
2023/03/13 16:15:14;;;;;;;;;;;;;;;;;;4994166;28;19973;-26
2023/03/13 16:17:40;;;;;;;;;;;;;;;;;;4977420;28;20008;-25
2023/03/13 16:20:09;;;;;;;;;;;;;;;;;;4994326;28;20318;-26
2023/03/13 16:22:35;;;;;;;;;;;;;;;;;;4994270;28;20307;-26
2023/03/13 16:25:01;;;;;;;;;;;;;;;;;;4999745;28;19910;-26
2023/03/13 16:27:27;;;;;;;;;;;;;;;;;;4983649;28;19920;-25
2023/03/13 16:29:53;;;;;;;;;;;;;;;;;;5000537;28;20337;-25
2023/03/13 16:32:23;;;;;;;;;;;;;;;;;;5000827;28;19914;-25
2023/03/13 16:34:49;;;;;;;;;;;;;;;;;;5000505;28;19913;-25
2023/03/13 16:37:15;;;;;;;;;;;;;;;;;;4983957;28;20360;-25
2023/03/13 16:39:41;;;;;;;;;;;;;;;;;;5001254;28;19910;-25